createdAt,value
2022-12-02T00:00:06.696Z,0.08
2022-12-02T00:04:07.902Z,0.08
2022-12-02T00:08:09.493Z,0.08
2022-12-02T00:12:05.421Z,0.08
2022-12-02T00:16:05.511Z,0.08
2022-12-02T00:20:05.960Z,0.08
2022-12-02T00:24:05.577Z,0.08
2022-12-02T00:28:05.092Z,0.08
2022-12-02T00:32:06.441Z,0.08
2022-12-02T00:36:05.607Z,0.08
2022-12-02T00:40:05.567Z,0.08
2022-12-02T00:44:06.442Z,4.02
2022-12-02T00:48:06.274Z,0.96
2022-12-02T00:52:05.799Z,0.14
2022-12-02T00:56:05.535Z,0.14
2022-12-02T01:00:05.478Z,0.14
2022-12-02T01:04:08.800Z,0.14
2022-12-02T01:08:06.236Z,0.14
2022-12-02T01:12:05.778Z,0.14
2022-12-02T01:16:05.383Z,0.14
2022-12-02T01:20:05.432Z,0.14
2022-12-02T01:24:04.961Z,0.14
2022-12-02T01:28:06.065Z,0.14
2022-12-02T01:32:06.178Z,0.14
2022-12-02T01:36:05.661Z,0.14
2022-12-02T01:40:05.398Z,0.14
2022-12-02T01:44:05.284Z,0.14
2022-12-02T01:48:06.108Z,0.14
2022-12-02T01:52:05.269Z,0.14
2022-12-02T01:56:06.127Z,0.14
2022-12-02T02:00:05.337Z,1.11
2022-12-02T02:04:06.365Z,1.11
2022-12-02T02:08:05.671Z,1.11
2022-12-02T02:12:05.375Z,1.11
2022-12-02T02:16:06.115Z,1.11
2022-12-02T02:20:09.317Z,1.11
2022-12-02T02:24:05.517Z,1.11
2022-12-02T02:28:05.981Z,1.11
2022-12-02T02:32:06.883Z,1.11
2022-12-02T02:36:05.445Z,1.11
2022-12-02T02:40:05.687Z,1.11
2022-12-02T02:44:05.126Z,1.11
2022-12-02T02:48:05.694Z,1.11
2022-12-02T02:52:05.882Z,1.11
2022-12-02T02:56:05.777Z,1.11
2022-12-02T03:00:05.934Z,1.11
2022-12-02T03:04:05.837Z,1.24
2022-12-02T03:08:05.820Z,1.24
2022-12-02T03:12:05.109Z,1.24
2022-12-02T03:16:09.129Z,1.24
2022-12-02T03:20:05.874Z,1.24
2022-12-02T03:24:05.796Z,1.24
2022-12-02T03:28:05.505Z,1.24
2022-12-02T03:32:11.492Z,1.24
2022-12-02T03:36:06.060Z,1.24
2022-12-02T03:40:05.403Z,1.24
2022-12-02T03:44:05.448Z,1.24
2022-12-02T03:48:06.013Z,1.24
2022-12-02T03:52:05.399Z,1.24
2022-12-02T03:56:13.541Z,1.24
2022-12-02T04:00:09.948Z,1.24
2022-12-02T04:04:06.664Z,1.24
2022-12-02T04:08:05.918Z,1.24
2022-12-02T04:12:05.343Z,1.24
2022-12-02T04:16:06.138Z,1.24
2022-12-02T04:20:05.601Z,1.24
2022-12-02T04:24:04.993Z,1.24
2022-12-02T04:28:13.375Z,1.24
2022-12-02T04:32:06.410Z,1.24
2022-12-02T04:36:05.530Z,1.24
2022-12-02T04:40:05.338Z,1.24
2022-12-02T04:44:05.856Z,1.24
2022-12-02T04:48:06.328Z,1.24
2022-12-02T04:52:05.612Z,1.24
2022-12-02T04:56:05.289Z,1.24
2022-12-02T05:00:06.523Z,1.24
2022-12-02T05:04:05.894Z,1.24
2022-12-02T05:08:06.139Z,1.24
2022-12-02T05:12:10.423Z,1.24
2022-12-02T05:16:05.689Z,1.24
2022-12-02T05:20:05.911Z,1.24
2022-12-02T05:24:05.520Z,1.24
2022-12-02T05:28:09.612Z,1.24
2022-12-02T05:32:06.821Z,1.24
2022-12-02T05:36:05.638Z,1.24
2022-12-02T05:40:09.184Z,1.24
2022-12-02T05:44:05.748Z,1.24
2022-12-02T05:48:06.008Z,1.24
2022-12-02T05:52:10.835Z,1.24
2022-12-02T05:56:05.710Z,1.24
2022-12-02T06:00:06.101Z,1.24
2022-12-02T06:04:12.419Z,1.24
2022-12-02T06:08:05.987Z,1.24
2022-12-02T06:12:05.209Z,1.24
2022-12-02T06:16:06.358Z,1.24
2022-12-02T06:20:11.313Z,1.24
2022-12-02T06:24:05.590Z,1.24
2022-12-02T06:28:10.442Z,1.24
2022-12-02T06:32:06.200Z,1.24
2022-12-02T06:36:05.399Z,1.24
2022-12-02T06:40:52.417Z,1.24
2022-12-02T06:44:05.313Z,1.24
2022-12-02T06:48:06.037Z,1.24
2022-12-02T06:52:12.459Z,1.24
2022-12-02T06:56:05.388Z,1.24
2022-12-02T07:00:05.122Z,1.24
2022-12-02T07:04:12.992Z,1.24
2022-12-02T07:08:05.808Z,1.24
2022-12-02T07:12:06.305Z,1.24
2022-12-02T07:16:06.010Z,1.24
2022-12-02T07:20:05.889Z,1.24
2022-12-02T07:24:05.487Z,1.24
2022-12-02T07:28:12.974Z,1.24
2022-12-02T07:32:05.893Z,1.24
2022-12-02T07:36:11.099Z,1.24
2022-12-02T07:40:45.797Z,1.24
2022-12-02T07:44:05.053Z,1.24
2022-12-02T07:48:06.365Z,1.24
2022-12-02T07:52:05.333Z,1.24
2022-12-02T07:56:11.649Z,1.24
2022-12-02T08:00:43.125Z,1.24
2022-12-02T08:04:05.977Z,1.24
2022-12-02T08:08:10.618Z,1.24
2022-12-02T08:12:05.798Z,1.24
2022-12-02T08:16:05.771Z,1.24
2022-12-02T08:20:05.108Z,1.24
2022-12-02T08:24:05.948Z,1.24
2022-12-02T08:28:08.257Z,1.24
2022-12-02T08:32:06.758Z,1.24
2022-12-02T08:36:11.459Z,1.24
2022-12-02T08:40:05.190Z,1.24
2022-12-02T08:44:05.810Z,1.24
2022-12-02T08:48:13.086Z,1.24
2022-12-02T08:52:05.690Z,1.24
2022-12-02T08:56:05.613Z,1.24
2022-12-02T09:00:05.623Z,1.24
2022-12-02T09:04:05.983Z,1.24
2022-12-02T09:08:06.949Z,1.24
2022-12-02T09:12:06.162Z,1.24
2022-12-02T09:16:05.879Z,1.24
2022-12-02T09:20:07.645Z,1.24
2022-12-02T09:24:12.996Z,1.24
2022-12-02T09:28:05.104Z,1.24
2022-12-02T09:32:07.021Z,1.24
2022-12-02T09:36:05.566Z,1.24
2022-12-02T09:40:12.696Z,1.24
2022-12-02T09:44:05.669Z,1.24
2022-12-02T09:48:06.509Z,1.24
2022-12-02T09:52:05.998Z,1.24
2022-12-02T09:56:05.430Z,1.24
2022-12-02T10:00:05.955Z,1.24
2022-12-02T10:04:14.699Z,1.24
2022-12-02T10:08:06.295Z,1.24
2022-12-02T10:12:05.703Z,1.24
2022-12-02T10:16:05.541Z,4.93
2022-12-02T10:20:06.037Z,0.2
2022-12-02T10:24:12.934Z,0.2
2022-12-02T10:28:05.424Z,0.13
2022-12-02T10:32:06.018Z,0.1
2022-12-02T10:36:05.107Z,0.1
2022-12-02T10:40:12.069Z,0.1
2022-12-02T10:44:05.361Z,0.09
2022-12-02T10:48:11.756Z,0.09
2022-12-02T10:52:05.934Z,0.09
2022-12-02T10:56:24.623Z,0.08
2022-12-02T11:00:05.282Z,0.08
2022-12-02T11:04:06.728Z,0.08
2022-12-02T11:08:05.802Z,0.08
2022-12-02T11:12:05.258Z,0.08
2022-12-02T11:16:05.688Z,0.08
2022-12-02T11:20:05.921Z,0.08
2022-12-02T11:24:05.672Z,0.08
2022-12-02T11:28:12.989Z,0.08
2022-12-02T11:32:06.340Z,0.08
2022-12-02T11:36:45.513Z,0.08
2022-12-02T11:40:09.175Z,0.08
2022-12-02T11:44:05.597Z,0.08
2022-12-02T11:48:06.667Z,0.08
2022-12-02T11:52:08.329Z,0.08
2022-12-02T11:56:05.880Z,0.08
2022-12-02T12:00:05.757Z,0.08
2022-12-02T12:04:06.866Z,0.08
2022-12-02T12:08:14.348Z,0.08
2022-12-02T12:12:05.652Z,0.08
2022-12-02T12:16:05.362Z,0.08
2022-12-02T12:20:11.977Z,0.08
2022-12-02T12:24:05.832Z,0.08
2022-12-02T12:28:04.953Z,0.08
2022-12-02T12:32:12.372Z,0.08
2022-12-02T12:36:06.039Z,0.08
2022-12-02T12:40:11.765Z,0.08
2022-12-02T12:44:06.404Z,0.08
2022-12-02T12:48:07.806Z,0.08
2022-12-02T12:52:11.520Z,0.08
2022-12-02T12:56:12.379Z,0.08
2022-12-02T13:00:05.698Z,0.08
2022-12-02T13:04:06.365Z,0.08
2022-12-02T13:08:13.145Z,0.08
2022-12-02T13:12:11.238Z,0.08
2022-12-02T13:16:05.513Z,0.08
2022-12-02T13:20:05.208Z,0.08
2022-12-02T13:24:05.761Z,1.66
2022-12-02T13:28:09.455Z,0.14
2022-12-02T13:32:13.068Z,0.14
2022-12-02T13:36:08.196Z,0.1
2022-12-02T13:40:13.693Z,0.09
2022-12-02T13:44:05.802Z,0.09
2022-12-02T13:48:12.809Z,0.08
2022-12-02T13:52:05.607Z,0.08
2022-12-02T13:56:05.126Z,0.08
2022-12-02T14:00:12.009Z,0.08
2022-12-02T14:04:06.361Z,0.08
2022-12-02T14:08:05.805Z,0.08
2022-12-02T14:12:07.400Z,0.08
2022-12-02T14:16:05.975Z,0.08
2022-12-02T14:20:05.975Z,0.08
2022-12-02T14:24:05.985Z,0.08
2022-12-02T14:28:05.640Z,0.08
2022-12-02T14:32:20.457Z,0.08
2022-12-02T14:36:17.288Z,0.08
2022-12-02T14:40:05.692Z,0.08
2022-12-02T14:44:10.717Z,0.08
2022-12-02T14:48:05.841Z,0.08
2022-12-02T14:52:06.486Z,0.08
2022-12-02T14:56:05.584Z,0.08
2022-12-02T15:00:11.291Z,0.6
2022-12-02T15:04:06.881Z,0.6
2022-12-02T15:08:05.578Z,0.6
2022-12-02T15:12:11.745Z,0.6
2022-12-02T15:16:48.228Z,0.6
2022-12-02T15:20:05.484Z,0.6
2022-12-02T15:24:05.317Z,0.6
2022-12-02T15:28:12.586Z,0.6
2022-12-02T15:32:06.948Z,0.6
2022-12-02T15:36:05.106Z,0.6
2022-12-02T15:40:06.592Z,0.6
2022-12-02T15:44:09.764Z,0.6
2022-12-02T15:48:06.505Z,0.6
2022-12-02T15:52:13.412Z,0.6
2022-12-02T15:56:05.239Z,0.6
2022-12-02T16:00:06.068Z,0.6
2022-12-02T16:04:14.575Z,0.6
2022-12-02T16:08:05.962Z,0.6
2022-12-02T16:12:08.226Z,0.6
2022-12-02T16:16:13.178Z,0.6
2022-12-02T16:20:05.172Z,0.6
2022-12-02T16:24:05.607Z,0.6
2022-12-02T16:28:14.011Z,0.6
2022-12-02T16:32:06.308Z,0.6
2022-12-02T16:36:05.637Z,0.6
2022-12-02T16:40:08.520Z,0.6
2022-12-02T16:44:05.724Z,0.6
2022-12-02T16:48:05.847Z,0.6
2022-12-02T16:52:11.463Z,0.6
2022-12-02T16:56:05.757Z,0.6
2022-12-02T17:00:05.706Z,0.6
2022-12-02T17:04:13.873Z,0.6
2022-12-02T17:08:06.630Z,0.6
2022-12-02T17:12:05.982Z,0.6
2022-12-02T17:16:12.282Z,0.6
2022-12-02T17:20:05.364Z,0.6
2022-12-02T17:24:06.233Z,0.6
2022-12-02T17:28:13.014Z,0.6
2022-12-02T17:32:06.109Z,0.6
2022-12-02T17:36:05.440Z,0.6
2022-12-02T17:40:11.127Z,0.6
2022-12-02T17:44:05.719Z,0.6
2022-12-02T17:48:06.338Z,0.6
2022-12-02T17:52:40.429Z,0.6
2022-12-02T17:56:07.402Z,0.6
2022-12-02T18:00:05.988Z,0.6
2022-12-02T18:04:07.113Z,0.6
2022-12-02T18:08:06.934Z,0.6
2022-12-02T18:12:06.116Z,0.6
2022-12-02T18:16:06.589Z,0.6
2022-12-02T18:20:05.100Z,0.6
2022-12-02T18:24:12.538Z,0.6
2022-12-02T18:28:05.532Z,0.6
2022-12-02T18:32:11.174Z,0.6
2022-12-02T18:36:05.049Z,0.6
2022-12-02T18:40:06.088Z,0.6
2022-12-02T18:44:10.280Z,0.6
2022-12-02T18:48:05.749Z,0.6
2022-12-02T18:52:05.433Z,0.6
2022-12-02T18:56:05.969Z,0.6
2022-12-02T19:00:05.950Z,0.6
2022-12-02T19:04:06.428Z,0.6
2022-12-02T19:08:06.302Z,0.6
2022-12-02T19:12:05.873Z,0.6
2022-12-02T19:16:12.552Z,0.6
2022-12-02T19:20:05.447Z,0.6
2022-12-02T19:24:05.890Z,0.6
2022-12-02T19:28:43.158Z,0.6
2022-12-02T19:32:07.448Z,0.6
2022-12-02T19:36:05.989Z,0.6
2022-12-02T19:40:11.713Z,0.6
2022-12-02T19:44:15.487Z,0.6
2022-12-02T19:48:07.685Z,0.6
2022-12-02T19:52:06.080Z,0.6
2022-12-02T19:56:10.700Z,0.6
2022-12-02T20:00:05.299Z,0.6
2022-12-02T20:04:40.204Z,0.6
2022-12-02T20:08:13.548Z,0.6
2022-12-02T20:12:05.316Z,0.6
2022-12-02T20:16:10.179Z,0.6
2022-12-02T20:20:06.206Z,0.6
2022-12-02T20:24:05.635Z,0.6
2022-12-02T20:28:06.244Z,0.6
2022-12-02T20:32:06.642Z,0.6
2022-12-02T20:36:05.488Z,0.6
2022-12-02T20:40:05.380Z,0.6
2022-12-02T20:44:05.884Z,0.6
2022-12-02T20:48:06.570Z,0.6
2022-12-02T20:52:05.134Z,0.6
2022-12-02T20:56:05.969Z,0.6
2022-12-02T21:00:06.804Z,0.6
2022-12-02T21:04:06.279Z,0.6
2022-12-02T21:08:06.865Z,0.6
2022-12-02T21:12:05.520Z,0.6
2022-12-02T21:16:05.538Z,0.6
2022-12-02T21:20:08.507Z,0.6
2022-12-02T21:24:11.374Z,0.6
2022-12-02T21:28:05.369Z,0.6
2022-12-02T21:32:05.714Z,0.6
2022-12-02T21:36:06.595Z,0.6
2022-12-02T21:40:05.246Z,0.6
2022-12-02T21:44:12.322Z,0.6
2022-12-02T21:48:06.485Z,0.6
2022-12-02T21:52:06.173Z,0.6
2022-12-02T21:56:05.531Z,0.6
2022-12-02T22:00:05.371Z,0.6
2022-12-02T22:04:11.385Z,0.6
2022-12-02T22:08:06.880Z,0.6
2022-12-02T22:12:05.666Z,0.6
2022-12-02T22:16:05.353Z,0.6
2022-12-02T22:20:11.664Z,0.6
2022-12-02T22:24:05.680Z,0.6
2022-12-02T22:28:12.140Z,0.6
2022-12-02T22:32:06.487Z,0.6
2022-12-02T22:36:05.371Z,0.6
2022-12-02T22:40:11.309Z,0.6
2022-12-02T22:44:05.977Z,0.6
2022-12-02T22:48:05.773Z,0.6
2022-12-02T22:52:09.678Z,0.6
2022-12-02T22:56:05.319Z,0.6
2022-12-02T23:00:09.877Z,0.6
2022-12-02T23:04:11.126Z,0.6
2022-12-02T23:08:05.410Z,0.6
2022-12-02T23:12:06.257Z,0.6
2022-12-02T23:16:41.968Z,0.6
2022-12-02T23:20:05.281Z,0.6
2022-12-02T23:24:06.559Z,0.6
2022-12-02T23:28:05.639Z,0.6
2022-12-02T23:32:11.695Z,0.6
2022-12-02T23:36:05.281Z,0.6
2022-12-02T23:40:05.973Z,0.6
2022-12-02T23:44:08.527Z,0.6
2022-12-02T23:48:05.942Z,0.6
2022-12-02T23:52:12.216Z,0.6
2022-12-02T23:56:05.835Z,0.6
